Earlston, United Kingdom
Current Conditions -  °F | °C
As of 1:50 AM on Tuesday 21 Oct 2014 (Local Time) from EGPH Reporting Station
Moderate Rain Moderate Rain  
Wind Chill: 55°   Ceiling: Unl
Heat Index: 55°   Visibility: 6mi
Dew Point: 52°   Wind: 14mph
Humidity: 88%   Direction: 200°SSW
Pressure: 29.26"   Gusts: NA
Location:  55.64°N, 2.67°W
Report Text: EGPH 210050Z 20012KT 9999 RA NSC 13/11 Q0991
Loading
Personal Weather Stations






























Interactive Weather Map
Tropical Storm Tracking
New forecast layout! Learn more

10-Day Weather Forecast

Advertisements
Track Severe Weather on mobile